Time;durP1;ratioP1;P1;durP2;ratioP2;P2;SDS_P1;SDS_P2;PMS_P1;PMS_P2;Temp;Humidity;BMP_temperature;BMP_pressure;BME280_temperature;BME280_humidity;BME280_pressure;Samples;Min_cycle;Max_cycle;Signal;HPM_P1;HPM_P2
2022/04/26 03:39:45;;;;;;;8.15;5.70;;;;;;;8.27;79.40;95654.19;10258687;28;97652;-67
2022/04/26 03:44:48;;;;;;;9.10;5.90;;;;;;;8.30;78.92;95659.13;10269152;28;97001;-67
2022/04/26 03:49:52;;;;;;;7.80;5.55;;;;;;;8.30;79.54;95664.31;10257805;28;97052;-67
2022/04/26 03:54:55;;;;;;;10.80;5.40;;;;;;;8.24;79.49;95664.91;10251649;28;97366;-67
2022/04/26 03:59:58;;;;;;;10.77;6.30;;;;;;;8.31;79.38;95681.56;10278623;28;97200;-67
2022/04/26 04:05:02;;;;;;;7.38;5.75;;;;;;;8.30;79.29;95668.72;10372100;27;97024;-67
2022/04/26 04:10:06;;;;;;;6.23;5.20;;;;;;;8.41;79.25;95667.66;10443789;27;99729;-67
2022/04/26 04:15:10;;;;;;;8.40;5.57;;;;;;;8.49;78.91;95683.38;10428797;27;96893;-67
2022/04/26 04:20:15;;;;;;;7.18;5.88;;;;;;;8.56;78.64;95683.59;10425652;27;96845;-68
2022/04/26 04:25:18;;;;;;;7.53;5.57;;;;;;;8.60;78.91;95680.53;10430695;27;96823;-67
2022/04/26 04:30:21;;;;;;;8.77;6.50;;;;;;;8.62;78.79;95683.81;10423673;27;97210;-67
2022/04/26 04:35:25;;;;;;;7.63;5.22;;;;;;;8.66;78.54;95690.38;10429270;27;97081;-67
2022/04/26 04:40:28;;;;;;;9.53;5.87;;;;;;;8.68;78.83;95695.44;10429167;27;97930;-67
2022/04/26 04:45:31;;;;;;;9.70;6.60;;;;;;;8.68;78.39;95692.81;10440836;27;97264;-67
2022/04/26 04:50:35;;;;;;;7.57;6.13;;;;;;;8.65;78.39;95699.13;10438097;27;96953;-67
2022/04/26 04:55:39;;;;;;;8.67;5.70;;;;;;;8.73;78.15;95711.41;10424511;27;97215;-67
2022/04/26 05:00:42;;;;;;;7.70;5.50;;;;;;;8.78;77.64;95710.94;10432057;27;98017;-67
2022/04/26 05:05:46;;;;;;;7.90;5.97;;;;;;;8.67;77.90;95728.47;10440846;27;96891;-67
2022/04/26 05:10:49;;;;;;;7.50;5.77;;;;;;;8.70;77.62;95716.91;10432662;27;97048;-67
2022/04/26 05:15:53;;;;;;;8.77;6.10;;;;;;;8.78;77.69;95727.41;10434013;27;98947;-67
2022/04/26 05:20:57;;;;;;;8.23;5.95;;;;;;;8.79;77.12;95730.84;10440018;27;97892;-68
2022/04/26 05:26:00;;;;;;;8.87;5.53;;;;;;;8.83;77.44;95733.00;10435403;27;97480;-67
2022/04/26 05:31:03;;;;;;;7.28;5.88;;;;;;;8.91;77.72;95727.84;10450351;27;98104;-67
2022/04/26 05:36:07;;;;;;;8.43;6.18;;;;;;;9.00;77.82;95739.19;10431413;27;96955;-67
2022/04/26 05:41:10;;;;;;;11.13;6.20;;;;;;;9.05;77.71;95757.75;10451163;27;97142;-67
2022/04/26 05:46:13;;;;;;;7.80;6.32;;;;;;;9.09;77.53;95755.69;10440795;27;98962;-67
2022/04/26 05:51:18;;;;;;;7.85;6.00;;;;;;;9.13;77.62;95774.44;10442365;27;97212;-67
2022/04/26 05:56:21;;;;;;;8.93;5.88;;;;;;;9.10;77.67;95781.56;10446573;27;97837;-67
2022/04/26 06:01:24;;;;;;;8.23;6.53;;;;;;;9.15;77.60;95785.53;10437787;27;98569;-67
2022/04/26 06:06:28;;;;;;;9.07;6.20;;;;;;;9.22;77.07;95778.75;10428592;27;97512;-67
2022/04/26 06:11:32;;;;;;;8.95;6.78;;;;;;;9.27;77.16;95795.56;10438985;27;98363;-67
2022/04/26 06:16:35;;;;;;;9.85;6.80;;;;;;;9.36;77.16;95785.22;10437810;27;98394;-67
2022/04/26 06:21:40;;;;;;;8.43;6.38;;;;;;;9.41;76.38;95789.00;10433488;27;97480;-67
2022/04/26 06:26:43;;;;;;;11.33;8.20;;;;;;;9.47;76.33;95792.81;10432266;27;99416;-68
2022/04/26 06:31:46;;;;;;;11.68;8.30;;;;;;;9.52;76.59;95797.59;10442394;27;96888;-67
2022/04/26 06:36:50;;;;;;;10.85;7.55;;;;;;;9.64;76.05;95805.00;10445921;27;96947;-67
2022/04/26 06:41:54;;;;;;;10.23;8.15;;;;;;;9.71;76.43;95810.44;10433611;27;96821;-67
2022/04/26 06:46:57;;;;;;;8.55;6.90;;;;;;;9.78;76.02;95810.63;10439548;27;97912;-68
2022/04/26 06:52:01;;;;;;;9.52;6.70;;;;;;;9.84;75.25;95816.06;10441532;27;99265;-67
2022/04/26 06:57:04;;;;;;;11.33;7.80;;;;;;;9.91;75.61;95825.91;10431803;27;97013;-67
2022/04/26 07:02:07;;;;;;;9.02;6.60;;;;;;;9.92;75.33;95835.34;10433423;27;99842;-67
2022/04/26 07:07:11;;;;;;;7.97;6.72;;;;;;;9.98;75.20;95829.53;10438151;27;100790;-68
2022/04/26 07:12:14;;;;;;;8.43;7.53;;;;;;;10.06;75.25;95829.56;10441454;27;97847;-67
2022/04/26 07:17:18;;;;;;;12.02;9.40;;;;;;;10.12;75.67;95825.53;10414974;28;97213;-68
2022/04/26 07:22:23;;;;;;;11.93;9.73;;;;;;;10.23;75.86;95833.91;10420052;27;96907;-67
2022/04/26 07:27:26;;;;;;;14.38;11.32;;;;;;;10.36;75.60;95841.31;10422056;27;96872;-68
2022/04/26 07:37:47;;;;;;;8.60;7.55;;;;;;;10.84;75.52;95838.22;10426295;27;97025;-67
2022/04/26 07:42:50;;;;;;;8.50;6.57;;;;;;;11.25;75.50;95831.28;10422376;27;97574;-68
2022/04/26 07:47:53;;;;;;;9.95;8.93;;;;;;;11.58;75.33;95840.97;10426635;27;98744;-68
2022/04/26 07:52:58;;;;;;;8.45;7.47;;;;;;;11.68;74.54;95845.06;10431690;27;96849;-68
2022/04/26 07:58:00;;;;;;;9.97;7.10;;;;;;;11.82;74.58;95838.34;10434593;27;96881;-68
2022/04/26 08:03:05;;;;;;;6.95;5.45;;;;;;;11.95;73.32;95845.66;10425352;27;96885;-68
2022/04/26 08:08:09;;;;;;;8.18;5.53;;;;;;;12.26;72.00;95856.25;10425028;27;97893;-68
2022/04/26 08:13:12;;;;;;;7.13;6.07;;;;;;;12.44;71.78;95861.28;10424858;27;97034;-68
2022/04/26 08:18:15;;;;;;;6.32;5.38;;;;;;;12.50;70.73;95857.97;10422206;27;97030;-68
2022/04/26 08:23:20;;;;;;;6.78;4.82;;;;;;;12.76;70.92;95862.16;10425076;27;96755;-68
2022/04/26 08:28:22;;;;;;;5.83;4.47;;;;;;;12.92;69.13;95870.97;10425168;27;96910;-68
2022/04/26 08:33:25;;;;;;;5.90;4.57;;;;;;;13.10;68.51;95873.31;10419735;27;99871;-68
2022/04/26 08:38:29;;;;;;;5.55;4.40;;;;;;;13.17;66.50;95882.97;10426216;27;96948;-68
2022/04/26 08:43:33;;;;;;;5.47;3.93;;;;;;;13.28;66.07;95888.81;10427420;27;98665;-68
2022/04/26 08:53:59;;;;;;;4.82;4.32;;;;;;;13.63;64.87;95900.53;10440048;27;97895;-68
2022/04/26 08:59:02;;;;;;;4.68;3.67;;;;;;;13.72;64.29;95915.22;10432598;27;98236;-68
2022/04/26 09:04:05;;;;;;;5.28;4.15;;;;;;;13.90;63.72;95909.69;10425376;27;99018;-68
2022/04/26 09:09:13;;;;;;;4.57;4.07;;;;;;;14.09;63.59;95916.28;10433208;27;96896;-68
2022/04/26 09:14:31;;;;;;;4.78;4.18;;;;;;;14.16;63.09;95921.66;10439141;27;98144;-68
2022/04/26 09:19:46;;;;;;;5.30;3.72;;;;;;;14.12;62.02;95915.09;10453726;27;96849;-68
2022/04/26 09:25:01;;;;;;;3.90;3.47;;;;;;;14.02;61.68;95917.97;10458305;27;99445;-68
2022/04/26 09:30:08;;;;;;;6.03;4.30;;;;;;;13.93;61.22;95911.16;10463386;27;96941;-68
2022/04/26 09:35:18;;;;;;;5.53;4.32;;;;;;;13.91;60.04;95921.00;10434822;27;96922;-68
2022/04/26 09:40:27;;;;;;;4.90;3.90;;;;;;;14.00;59.93;95933.91;10442583;27;97353;-68
2022/04/26 09:45:30;;;;;;;5.40;4.20;;;;;;;14.36;59.72;95924.59;10438983;27;98308;-68
2022/04/26 09:50:34;;;;;;;6.10;4.28;;;;;;;14.64;58.26;95924.78;10439709;27;96772;-68
2022/04/26 09:55:41;;;;;;;7.10;4.85;;;;;;;14.91;59.20;95927.81;10437099;27;97094;-68
2022/04/26 10:00:47;;;;;;;6.30;4.75;;;;;;;15.18;59.22;95936.03;10454545;27;96849;-68
2022/04/26 10:05:56;;;;;;;4.97;4.38;;;;;;;15.22;58.84;95935.47;10443134;27;96780;-68
2022/04/26 10:11:00;;;;;;;4.93;3.97;;;;;;;15.43;57.71;95939.97;10436303;27;96813;-68
2022/04/26 10:16:05;;;;;;;6.55;4.78;;;;;;;15.48;57.11;95942.88;10441755;27;96994;-68
2022/04/26 10:21:08;;;;;;;5.85;4.13;;;;;;;15.51;56.55;95949.56;10426604;27;96897;-68
2022/04/26 10:26:23;;;;;;;5.40;4.40;;;;;;;15.81;55.21;95937.16;10436797;27;97207;-68
2022/04/26 10:31:37;;;;;;;4.28;3.85;;;;;;;16.07;54.89;95938.41;10452280;27;96951;-68
2022/04/26 10:36:40;;;;;;;5.47;4.13;;;;;;;16.22;56.88;95939.16;10434315;27;96752;-68
2022/04/26 10:41:46;;;;;;;5.07;3.80;;;;;;;16.20;54.71;95937.69;10451823;27;97934;-68
2022/04/26 10:47:09;;;;;;;4.40;4.00;;;;;;;16.31;53.60;95939.84;10434138;27;96917;-68
2022/04/26 10:52:47;;;;;;;5.60;3.85;;;;;;;16.48;53.03;95942.97;10427236;27;96821;-68
2022/04/26 10:57:52;;;;;;;6.10;3.90;;;;;;;16.43;52.61;95948.00;10441889;27;96977;-68
2022/04/26 11:03:02;;;;;;;4.55;3.55;;;;;;;16.12;52.32;95949.22;10428748;27;96931;-68
2022/04/26 11:08:07;;;;;;;7.15;3.58;;;;;;;15.70;51.99;95956.06;10444013;27;97475;-68
2022/04/26 11:13:19;;;;;;;4.15;2.92;;;;;;;15.10;52.15;95956.19;10426527;27;96950;-68
2022/04/26 11:18:22;;;;;;;4.13;3.00;;;;;;;14.94;55.01;95953.75;10441276;27;100880;-68
2022/04/26 11:28:59;;;;;;;4.65;2.88;;;;;;;14.75;57.87;95957.72;10437056;27;96834;-68
2022/04/26 11:34:01;;;;;;;5.47;3.42;;;;;;;14.33;58.84;95964.34;10434774;27;96904;-68
2022/04/26 11:39:04;;;;;;;5.63;3.65;;;;;;;14.13;59.21;95956.94;10455453;27;96931;-68
2022/04/26 11:44:09;;;;;;;3.88;3.28;;;;;;;14.10;59.65;95965.16;10429592;27;97863;-68
2022/04/26 11:49:11;;;;;;;4.00;3.00;;;;;;;14.31;58.43;95967.16;10430506;27;96941;-68
2022/04/26 11:54:38;;;;;;;4.18;3.10;;;;;;;14.74;58.05;95962.16;10447493;27;96744;-68
2022/04/26 11:59:44;;;;;;;4.97;3.70;;;;;;;15.11;57.24;95962.25;10442607;27;97071;-68
2022/04/26 12:04:50;;;;;;;5.70;3.20;;;;;;;15.41;56.34;95960.41;10448245;27;96948;-68
2022/04/26 12:09:53;;;;;;;4.43;3.40;;;;;;;15.78;56.22;95957.78;10446097;27;96877;-68
2022/04/26 12:14:58;;;;;;;4.72;3.00;;;;;;;16.11;54.67;95960.75;10424616;27;96867;-68
2022/04/26 12:20:10;;;;;;;7.13;3.65;;;;;;;16.31;54.86;95958.28;10442564;27;96808;-68
2022/04/26 12:25:16;;;;;;;3.97;3.58;;;;;;;16.50;53.71;95959.44;10441098;27;96727;-68
2022/04/26 12:30:20;;;;;;;4.43;2.97;;;;;;;16.46;53.40;95965.28;10436966;27;97445;-68
2022/04/26 12:35:24;;;;;;;4.07;3.20;;;;;;;16.87;52.80;95970.69;10451940;27;98108;-68
2022/04/26 12:40:27;;;;;;;3.65;2.90;;;;;;;16.90;53.81;95964.19;10434187;27;97067;-68
2022/04/26 12:45:32;;;;;;;3.22;2.92;;;;;;;16.61;52.14;95960.75;10427473;27;96960;-68
2022/04/26 12:50:35;;;;;;;4.28;3.22;;;;;;;16.59;52.48;95962.75;10453049;27;97339;-68
2022/04/26 12:55:40;;;;;;;5.57;3.30;;;;;;;16.57;53.60;95952.41;10431553;27;96856;-68
2022/04/26 13:00:46;;;;;;;3.15;2.60;;;;;;;16.58;51.17;95953.19;10421166;27;97093;-68
2022/04/26 13:05:52;;;;;;;3.42;3.13;;;;;;;16.77;51.11;95955.19;10448230;27;97312;-68
2022/04/26 13:10:55;;;;;;;6.13;2.90;;;;;;;16.71;50.92;95957.75;10431092;27;97459;-68
2022/04/26 13:15:59;;;;;;;3.75;2.80;;;;;;;16.51;50.83;95952.34;10450015;27;98838;-68
2022/04/26 13:21:03;;;;;;;3.60;2.65;;;;;;;16.09;53.09;95948.78;10445296;27;98251;-68
2022/04/26 13:26:07;;;;;;;4.10;2.97;;;;;;;16.19;52.24;95950.06;10451377;27;97116;-68
2022/04/26 13:31:11;;;;;;;3.53;2.97;;;;;;;16.77;51.44;95949.91;10449374;27;97322;-68
2022/04/26 13:36:14;;;;;;;3.65;3.10;;;;;;;17.15;49.77;95938.94;10453019;27;97303;-68
2022/04/26 13:41:17;;;;;;;3.00;2.70;;;;;;;17.41;49.13;95941.91;10451567;27;99964;-68
2022/04/26 13:46:21;;;;;;;4.03;2.72;;;;;;;17.89;49.17;95932.09;10448203;27;97539;-68
2022/04/26 13:51:29;;;;;;;3.40;2.72;;;;;;;18.37;47.97;95932.94;10450856;27;96876;-68
2022/04/26 13:56:31;;;;;;;3.47;2.42;;;;;;;18.53;46.38;95923.75;10449557;27;96933;-68
2022/04/26 14:01:36;;;;;;;3.40;2.45;;;;;;;18.61;46.14;95920.91;10450774;27;96961;-68
2022/04/26 22:51:50;;;;;;;4.47;2.93;;;;;;;6.56;66.56;96172.63;10277030;28;99018;-68
2022/04/26 22:56:53;;;;;;;3.55;3.10;;;;;;;6.48;66.50;96178.44;10274659;28;98866;-68
2022/04/26 23:01:55;;;;;;;6.68;3.50;;;;;;;6.40;67.45;96181.66;10273217;28;96972;-68
2022/04/26 23:07:00;;;;;;;5.20;3.80;;;;;;;6.20;68.26;96175.47;10280908;28;97004;-68
2022/04/26 23:12:03;;;;;;;6.60;3.80;;;;;;;5.93;69.04;96182.81;10276627;28;100105;-68
2022/04/26 23:17:06;;;;;;;7.28;4.88;;;;;;;5.78;69.47;96180.50;10275687;28;97985;-67
2022/04/26 23:22:10;;;;;;;6.07;3.88;;;;;;;5.76;69.85;96179.78;10281181;28;97092;-68
2022/04/26 23:27:14;;;;;;;4.45;3.58;;;;;;;5.67;69.72;96191.69;10278579;28;97015;-67
2022/04/26 23:32:17;;;;;;;5.53;3.70;;;;;;;5.55;70.24;96200.44;10270471;28;98795;-68
2022/04/26 23:37:21;;;;;;;4.43;3.55;;;;;;;5.53;70.33;96197.09;10285231;28;100118;-68
2022/04/26 23:42:24;;;;;;;5.88;3.42;;;;;;;5.51;70.12;96184.28;10287236;28;96902;-67
2022/04/26 23:47:27;;;;;;;5.78;3.50;;;;;;;5.49;69.80;96185.34;10291194;28;96725;-67
2022/04/26 23:57:51;;;;;;;4.90;3.20;;;;;;;5.23;70.60;96170.00;10361693;28;97164;-67
